Here is the Quick Look data you requested

The Data originates at the National Weather Service, and is made available here by the UAlbany Department of Atmospheric and Environmental Sciences

Surface Observations

KAKQ 250754Z AUTO 20005KT 10SM CLR 14/04 A3006 RMK AO2 SLP180 T01390044=
KAVC 250755Z AUTO 19005KT 10SM CLR 12/06 A3012 RMK AO2 T01190060=
KBCB 250750Z AUTO 00000KT 10SM BKN080 06/02 A3008 RMK AO2 T00570016=
KCHO 250753Z AUTO 02003KT 10SM CLR 10/M01 A3001 RMK AO2 SLP160 T01001006=
KCJR 250755Z AUTO 00000KT 10SM CLR 07/02 A3004 RMK AO2 T00710015=
KCPK 250755Z AUTO 19006KT 7SM SCT120 11/04 A3009 RMK AO2 T01120042=
KDAA 250756Z AUTO 00000KT 10SM OVC100 09/03 A3003 RMK AO2 SLP172 T00920025 $=
KDAN 250753Z AUTO VRB05KT 10SM CLR 13/01 A3006 RMK AO2 SLP171 T01280011=
KDCA 250752Z 06004KT 10SM OVC100 11/03 A3003 RMK AO2 SLP170 T01060033 $=
KEZF 250755Z AUTO 00000KT 10SM OVC110 09/05 A3002 RMK AO2 T00930046=
KFAF 250756Z AUTO 15005KT 10SM BKN130 13/05 A3003 RMK AO2 SLP172 T01300054 $=
KFKN 250755Z AUTO 22006KT 10SM BKN110 14/05 A3008 RMK AO2 T01390052=
KFVX 250755Z AUTO 21005KT 10SM CLR 12/02 A3002 RMK AO2 T01200017=
KHEF 250756Z AUTO 00000KT 10SM OVC100 08/04 A3002 RMK AO2 SLP178 T00830039 PNO
 $=
KHLX 250755Z AUTO 21005KT 10SM CLR 10/01 A3007 RMK AO2 T00970010 PWINO=
KHSP 250755Z AUTO 00000KT 10SM CLR 10/M06 A3006 RMK AO2 T00971065=
KIAD 250752Z 00000KT 10SM OVC095 08/02 A3003 RMK AO2 SLP166 T00780017=
KJYO 250755Z AUTO 00000KT 10SM OVC090 09/05 A3004 RMK AO2=
KLFI 250756Z AUTO 21012KT 10SM -DZ BKN130 14/05 A3005 RMK AO2
 DZB0656E07DZB08E30DZB31 SLP182 P0000 T01360050 $=
KLKU 250755Z AUTO 34005KT 10SM OVC100 12/03 A3007 RMK AO2 T01180030=
KLNP 250755Z AUTO 22003KT 10SM CLR 10/00 A3005 RMK AO2=
KLYH 250754Z AUTO 21004KT 10SM CLR 11/04 A3003 RMK AO2 SLP166 T01060039=
KMFV 250755Z AUTO 22009G16KT 10SM SCT110 14/04 A3004 RMK AO2 T01430036=
KMKJ 250755Z AUTO 00000KT 10SM CLR 05/01 A3010 RMK AO2 T00460011=
KMTV 250750Z AUTO 00000KT 10SM CLR 07/04 A3009 RMK AO2 T00660041=
KNGU 250759Z 21009G17KT 10SM BKN130 OVC180 14/05 A3008 RMK AO2 SLP185 T01440050
KNTU 250756Z 22013KT 10SM CLR 13/04 A3007 RMK AO2 SLP186 T01330044=
KNYG 250756Z AUTO 00000KT 10SM BKN100 10/03 A3003 RMK AO2 SLP171 T01000033 $=
KOFP 250754Z AUTO 19004KT 10SM BKN110 13/01 A3004 RMK AO2 SLP170 T01280006=
KOKV 250755Z AUTO 00000KT 10SM OVC090 08/00 A3004 RMK AO2=
KOMH 250755Z AUTO 00000KT 10SM CLR 07/04 A3002 RMK AO2=
KORF 250751Z 21014KT 10SM SCT110 14/05 A3006 RMK AO2 SLP180 T01390050=
KPHF 250754Z AUTO 21009KT 10SM CLR 13/04 A3006 RMK AO2 SLP178 T01330044=
KPSK 250755Z AUTO 00000KT 10SM CLR 07/00 A3007 RMK AO2 T00701004=
KPTB 250755Z AUTO 22005KT 10SM CLR 14/02 A3005 RMK AO2 T01380017=
KRIC 250754Z 19007KT 10SM OVC160 12/02 A3003 RMK AO2 SLP173 T01170017=
KROA 250754Z 30003KT 10SM CLR 13/01 A3006 RMK AO2 SLP171 T01330006=
KSFQ 250755Z AUTO 00000KT 10SM BKN110 13/06 A3009 RMK AO2 T01290056=
KSHD 250755Z AUTO 00000KT 10SM OVC100 04/02 A3005 RMK AO2 T00410015=
KVJI 250755Z AUTO 00000KT 10SM CLR 07/00 A3006 RMK AO2 T00671003=
KWAL 250754Z AUTO 19006KT 10SM CLR 10/06 A3004 RMK AO2 SLP168 T01000061=